2F6 weather

Skiatook Municipal Airport
Skiatook, Oklahoma, United States

Public forecast

Using degrees Fahrenheit for public forecast. Weather courtesy of forecast.io.

Closest aviation weather report (METAR) to Skiatook Municipal Airport

Closest report is Tulsa International Airport, 11.1 nm (20.6 km) SSE. Retrieved 2020/06/07 05:53 UTC (9 minutes ago):

KTUL 070553Z 13007KT 10SM FEW060 28/21 A2988 RMK AO2 SLP108 T02830206 10339 20278 403610250 51008

Closest aviation forecast (TAF) to Skiatook Municipal Airport

Closest forecast is Tulsa International Airport, 11.1 nm (20.6 km) SSE. Retrieved 2020/06/07 06:22 UTC (0 seconds ago):

TAF KTUL 070520Z 0706/0806 16006KT P6SM SKC FM071700 17009KT P6SM FEW050 FM080000 15004KT P6SM FEW100